sensor_id;sensor_type;location;lat;lon;timestamp;temperature;humidity
52879;DHT22;38747;53.140;6.498;2024-02-26T00:02:17;2.80;99.90
52879;DHT22;38747;53.140;6.498;2024-02-26T00:04:43;2.80;99.90
52879;DHT22;38747;53.140;6.498;2024-02-26T00:07:08;2.80;99.90
52879;DHT22;38747;53.140;6.498;2024-02-26T00:09:34;2.80;99.90
52879;DHT22;38747;53.140;6.498;2024-02-26T00:12:02;2.80;99.90
52879;DHT22;38747;53.140;6.498;2024-02-26T00:14:31;2.80;99.90
52879;DHT22;38747;53.140;6.498;2024-02-26T00:16:57;2.80;99.90
52879;DHT22;38747;53.140;6.498;2024-02-26T00:19:23;2.80;99.90
52879;DHT22;38747;53.140;6.498;2024-02-26T00:21:48;2.80;99.90
52879;DHT22;38747;53.140;6.498;2024-02-26T00:24:14;2.80;99.90
52879;DHT22;38747;53.140;6.498;2024-02-26T00:26:39;2.80;99.90
52879;DHT22;38747;53.140;6.498;2024-02-26T00:29:05;2.80;99.90
52879;DHT22;38747;53.140;6.498;2024-02-26T00:31:31;2.90;99.90
52879;DHT22;38747;53.140;6.498;2024-02-26T00:33:56;2.80;99.90
52879;DHT22;38747;53.140;6.498;2024-02-26T00:36:22;2.80;99.90
52879;DHT22;38747;53.140;6.498;2024-02-26T00:38:48;2.90;99.90
52879;DHT22;38747;53.140;6.498;2024-02-26T00:41:20;2.90;99.90
52879;DHT22;38747;53.140;6.498;2024-02-26T00:43:46;2.90;99.90
52879;DHT22;38747;53.140;6.498;2024-02-26T00:46:12;2.90;99.90
52879;DHT22;38747;53.140;6.498;2024-02-26T00:48:37;2.90;99.90
52879;DHT22;38747;53.140;6.498;2024-02-26T00:51:04;2.90;99.90
52879;DHT22;38747;53.140;6.498;2024-02-26T00:53:32;2.90;99.90
52879;DHT22;38747;53.140;6.498;2024-02-26T00:55:58;2.90;99.90
52879;DHT22;38747;53.140;6.498;2024-02-26T00:58:27;3.00;99.90
52879;DHT22;38747;53.140;6.498;2024-02-26T01:00:53;3.00;99.90
52879;DHT22;38747;53.140;6.498;2024-02-26T01:03:19;3.00;99.90
52879;DHT22;38747;53.140;6.498;2024-02-26T01:05:44;3.10;99.90
52879;DHT22;38747;53.140;6.498;2024-02-26T01:08:10;3.10;99.90
52879;DHT22;38747;53.140;6.498;2024-02-26T01:10:36;3.10;99.90
52879;DHT22;38747;53.140;6.498;2024-02-26T01:13:02;3.10;99.90
52879;DHT22;38747;53.140;6.498;2024-02-26T01:15:37;3.10;99.90
52879;DHT22;38747;53.140;6.498;2024-02-26T01:18:06;3.10;99.90
52879;DHT22;38747;53.140;6.498;2024-02-26T01:20:33;3.10;99.90
52879;DHT22;38747;53.140;6.498;2024-02-26T01:22:59;3.00;99.90
52879;DHT22;38747;53.140;6.498;2024-02-26T01:25:25;3.00;99.90
52879;DHT22;38747;53.140;6.498;2024-02-26T01:27:54;3.10;99.90
52879;DHT22;38747;53.140;6.498;2024-02-26T01:30:19;3.10;99.90
52879;DHT22;38747;53.140;6.498;2024-02-26T01:32:45;3.00;99.90
52879;DHT22;38747;53.140;6.498;2024-02-26T01:35:12;3.00;99.90
52879;DHT22;38747;53.140;6.498;2024-02-26T01:37:38;3.00;99.90
52879;DHT22;38747;53.140;6.498;2024-02-26T01:40:04;3.00;99.90
52879;DHT22;38747;53.140;6.498;2024-02-26T01:42:31;3.00;99.90
52879;DHT22;38747;53.140;6.498;2024-02-26T01:44:58;3.00;99.90
52879;DHT22;38747;53.140;6.498;2024-02-26T01:47:25;3.00;99.90
52879;DHT22;38747;53.140;6.498;2024-02-26T01:49:52;3.00;99.90
52879;DHT22;38747;53.140;6.498;2024-02-26T01:52:18;3.00;99.90
52879;DHT22;38747;53.140;6.498;2024-02-26T01:54:45;3.00;99.90
52879;DHT22;38747;53.140;6.498;2024-02-26T01:57:12;3.00;99.90
52879;DHT22;38747;53.140;6.498;2024-02-26T01:59:39;3.00;99.90
52879;DHT22;38747;53.140;6.498;2024-02-26T02:02:07;3.00;99.90
52879;DHT22;38747;53.140;6.498;2024-02-26T02:04:35;3.10;99.90
52879;DHT22;38747;53.140;6.498;2024-02-26T02:07:01;3.10;99.90
52879;DHT22;38747;53.140;6.498;2024-02-26T02:09:28;3.00;99.90
52879;DHT22;38747;53.140;6.498;2024-02-26T02:11:54;3.00;99.90
52879;DHT22;38747;53.140;6.498;2024-02-26T02:14:20;3.00;99.90
52879;DHT22;38747;53.140;6.498;2024-02-26T02:16:47;3.00;99.90
52879;DHT22;38747;53.140;6.498;2024-02-26T02:19:16;3.00;99.90
52879;DHT22;38747;53.140;6.498;2024-02-26T02:21:42;3.00;99.90
52879;DHT22;38747;53.140;6.498;2024-02-26T02:24:08;3.00;99.90
52879;DHT22;38747;53.140;6.498;2024-02-26T02:26:34;3.00;99.90
52879;DHT22;38747;53.140;6.498;2024-02-26T02:29:00;3.00;99.90
52879;DHT22;38747;53.140;6.498;2024-02-26T02:31:26;3.00;99.90
52879;DHT22;38747;53.140;6.498;2024-02-26T02:33:52;3.00;99.90
52879;DHT22;38747;53.140;6.498;2024-02-26T02:36:18;3.10;99.90
52879;DHT22;38747;53.140;6.498;2024-02-26T02:38:51;3.00;99.90
52879;DHT22;38747;53.140;6.498;2024-02-26T02:41:20;3.10;99.90
52879;DHT22;38747;53.140;6.498;2024-02-26T02:43:45;3.00;99.90
52879;DHT22;38747;53.140;6.498;2024-02-26T02:46:11;3.10;99.90
52879;DHT22;38747;53.140;6.498;2024-02-26T02:48:37;3.00;99.90
52879;DHT22;38747;53.140;6.498;2024-02-26T02:51:03;3.00;99.90
52879;DHT22;38747;53.140;6.498;2024-02-26T02:53:29;3.00;99.90
52879;DHT22;38747;53.140;6.498;2024-02-26T02:55:54;3.00;99.90
52879;DHT22;38747;53.140;6.498;2024-02-26T02:58:20;3.10;99.90
52879;DHT22;38747;53.140;6.498;2024-02-26T03:00:46;3.10;99.90
52879;DHT22;38747;53.140;6.498;2024-02-26T03:03:12;3.10;99.90
52879;DHT22;38747;53.140;6.498;2024-02-26T03:05:37;3.00;99.90
52879;DHT22;38747;53.140;6.498;2024-02-26T03:08:03;3.10;99.90
52879;DHT22;38747;53.140;6.498;2024-02-26T03:10:29;3.10;99.90
52879;DHT22;38747;53.140;6.498;2024-02-26T03:12:55;3.10;99.90
52879;DHT22;38747;53.140;6.498;2024-02-26T03:15:21;3.10;99.90
52879;DHT22;38747;53.140;6.498;2024-02-26T03:17:54;3.10;99.90
52879;DHT22;38747;53.140;6.498;2024-02-26T03:20:20;3.10;99.90
52879;DHT22;38747;53.140;6.498;2024-02-26T03:22:46;3.10;99.90
52879;DHT22;38747;53.140;6.498;2024-02-26T03:25:11;3.10;99.90
52879;DHT22;38747;53.140;6.498;2024-02-26T03:27:38;3.00;99.90
52879;DHT22;38747;53.140;6.498;2024-02-26T03:30:07;3.00;99.90
52879;DHT22;38747;53.140;6.498;2024-02-26T03:32:33;3.00;99.90
52879;DHT22;38747;53.140;6.498;2024-02-26T03:34:59;3.00;99.90
52879;DHT22;38747;53.140;6.498;2024-02-26T03:37:26;3.00;99.90
52879;DHT22;38747;53.140;6.498;2024-02-26T03:39:52;3.00;99.90
52879;DHT22;38747;53.140;6.498;2024-02-26T03:42:20;3.00;99.90
52879;DHT22;38747;53.140;6.498;2024-02-26T03:44:47;3.00;99.90
52879;DHT22;38747;53.140;6.498;2024-02-26T03:47:12;3.10;99.90
52879;DHT22;38747;53.140;6.498;2024-02-26T03:49:38;3.00;99.90
52879;DHT22;38747;53.140;6.498;2024-02-26T03:52:04;3.10;99.90
52879;DHT22;38747;53.140;6.498;2024-02-26T03:54:29;3.10;99.90
52879;DHT22;38747;53.140;6.498;2024-02-26T03:56:55;3.10;99.90
52879;DHT22;38747;53.140;6.498;2024-02-26T03:59:21;3.20;99.90
52879;DHT22;38747;53.140;6.498;2024-02-26T04:01:49;3.20;99.90
52879;DHT22;38747;53.140;6.498;2024-02-26T04:04:15;3.20;99.90
52879;DHT22;38747;53.140;6.498;2024-02-26T04:06:45;3.10;99.90
52879;DHT22;38747;53.140;6.498;2024-02-26T04:09:11;3.10;99.90
52879;DHT22;38747;53.140;6.498;2024-02-26T04:11:38;3.10;99.90
52879;DHT22;38747;53.140;6.498;2024-02-26T04:14:04;3.10;99.90
52879;DHT22;38747;53.140;6.498;2024-02-26T04:16:32;3.10;99.90
52879;DHT22;38747;53.140;6.498;2024-02-26T04:18:58;3.10;99.90
52879;DHT22;38747;53.140;6.498;2024-02-26T04:21:26;3.10;99.90
52879;DHT22;38747;53.140;6.498;2024-02-26T04:23:52;3.10;99.90
52879;DHT22;38747;53.140;6.498;2024-02-26T04:26:21;3.10;99.90
52879;DHT22;38747;53.140;6.498;2024-02-26T04:28:47;3.10;99.90
52879;DHT22;38747;53.140;6.498;2024-02-26T04:31:12;3.10;99.90
52879;DHT22;38747;53.140;6.498;2024-02-26T04:33:40;3.10;99.90
52879;DHT22;38747;53.140;6.498;2024-02-26T04:36:15;3.20;99.90
52879;DHT22;38747;53.140;6.498;2024-02-26T04:38:42;3.20;99.90
52879;DHT22;38747;53.140;6.498;2024-02-26T04:41:08;3.20;99.90
52879;DHT22;38747;53.140;6.498;2024-02-26T04:43:34;3.20;99.90
52879;DHT22;38747;53.140;6.498;2024-02-26T04:46:02;3.20;99.90
52879;DHT22;38747;53.140;6.498;2024-02-26T04:48:28;3.20;99.90
52879;DHT22;38747;53.140;6.498;2024-02-26T04:50:54;3.30;99.90
52879;DHT22;38747;53.140;6.498;2024-02-26T04:53:20;3.30;99.90
52879;DHT22;38747;53.140;6.498;2024-02-26T04:55:49;3.30;99.90
52879;DHT22;38747;53.140;6.498;2024-02-26T04:58:15;3.30;99.90
52879;DHT22;38747;53.140;6.498;2024-02-26T05:00:40;3.30;99.90
52879;DHT22;38747;53.140;6.498;2024-02-26T05:03:06;3.30;99.90
52879;DHT22;38747;53.140;6.498;2024-02-26T05:05:33;3.30;99.90
52879;DHT22;38747;53.140;6.498;2024-02-26T05:07:59;3.30;99.90
52879;DHT22;38747;53.140;6.498;2024-02-26T05:10:24;3.30;99.90
52879;DHT22;38747;53.140;6.498;2024-02-26T05:12:50;3.30;99.90
52879;DHT22;38747;53.140;6.498;2024-02-26T05:15:16;3.40;99.90
52879;DHT22;38747;53.140;6.498;2024-02-26T05:17:44;3.30;99.90
52879;DHT22;38747;53.140;6.498;2024-02-26T05:20:10;3.30;99.90
52879;DHT22;38747;53.140;6.498;2024-02-26T05:22:37;3.40;99.90
52879;DHT22;38747;53.140;6.498;2024-02-26T05:25:06;3.40;99.90
52879;DHT22;38747;53.140;6.498;2024-02-26T05:27:31;3.30;99.90
52879;DHT22;38747;53.140;6.498;2024-02-26T05:29:57;3.40;99.90
52879;DHT22;38747;53.140;6.498;2024-02-26T05:32:22;3.30;99.90
52879;DHT22;38747;53.140;6.498;2024-02-26T05:34:48;3.40;99.90
52879;DHT22;38747;53.140;6.498;2024-02-26T05:37:14;3.40;99.90
52879;DHT22;38747;53.140;6.498;2024-02-26T05:39:39;3.40;99.90
52879;DHT22;38747;53.140;6.498;2024-02-26T05:42:05;3.30;99.90
52879;DHT22;38747;53.140;6.498;2024-02-26T05:44:33;3.30;99.90
52879;DHT22;38747;53.140;6.498;2024-02-26T05:46:59;3.30;99.90
52879;DHT22;38747;53.140;6.498;2024-02-26T05:49:25;3.40;99.90
52879;DHT22;38747;53.140;6.498;2024-02-26T05:51:50;3.40;99.90
52879;DHT22;38747;53.140;6.498;2024-02-26T05:54:16;3.40;99.90
52879;DHT22;38747;53.140;6.498;2024-02-26T05:56:41;3.40;99.90
52879;DHT22;38747;53.140;6.498;2024-02-26T05:59:08;3.40;99.90
52879;DHT22;38747;53.140;6.498;2024-02-26T06:01:35;3.40;99.90
52879;DHT22;38747;53.140;6.498;2024-02-26T06:04:01;3.40;99.90
52879;DHT22;38747;53.140;6.498;2024-02-26T06:06:26;3.40;99.90
52879;DHT22;38747;53.140;6.498;2024-02-26T06:08:52;3.40;99.90
52879;DHT22;38747;53.140;6.498;2024-02-26T06:11:18;3.40;99.90
52879;DHT22;38747;53.140;6.498;2024-02-26T06:13:43;3.40;99.90
52879;DHT22;38747;53.140;6.498;2024-02-26T06:16:09;3.40;99.90
52879;DHT22;38747;53.140;6.498;2024-02-26T06:18:35;3.40;99.90
52879;DHT22;38747;53.140;6.498;2024-02-26T06:21:01;3.40;99.90
52879;DHT22;38747;53.140;6.498;2024-02-26T06:23:27;3.50;99.90
52879;DHT22;38747;53.140;6.498;2024-02-26T06:25:53;3.50;99.90
52879;DHT22;38747;53.140;6.498;2024-02-26T06:28:19;3.50;99.90
52879;DHT22;38747;53.140;6.498;2024-02-26T06:30:44;3.50;99.90
52879;DHT22;38747;53.140;6.498;2024-02-26T06:33:11;3.50;99.90
52879;DHT22;38747;53.140;6.498;2024-02-26T06:35:39;3.50;99.90
52879;DHT22;38747;53.140;6.498;2024-02-26T06:38:04;3.50;99.90
52879;DHT22;38747;53.140;6.498;2024-02-26T06:40:30;3.50;99.90
52879;DHT22;38747;53.140;6.498;2024-02-26T06:42:56;3.50;99.90
52879;DHT22;38747;53.140;6.498;2024-02-26T06:45:22;3.50;99.90
52879;DHT22;38747;53.140;6.498;2024-02-26T06:47:47;3.50;99.90
52879;DHT22;38747;53.140;6.498;2024-02-26T06:50:13;3.50;99.90
52879;DHT22;38747;53.140;6.498;2024-02-26T06:52:39;3.50;99.90
52879;DHT22;38747;53.140;6.498;2024-02-26T06:55:05;3.50;99.90
52879;DHT22;38747;53.140;6.498;2024-02-26T06:57:33;3.60;99.90
52879;DHT22;38747;53.140;6.498;2024-02-26T06:59:59;3.50;99.90
52879;DHT22;38747;53.140;6.498;2024-02-26T07:02:25;3.50;99.90
52879;DHT22;38747;53.140;6.498;2024-02-26T07:04:51;3.60;99.90
52879;DHT22;38747;53.140;6.498;2024-02-26T07:07:17;3.60;99.90
52879;DHT22;38747;53.140;6.498;2024-02-26T07:09:44;3.60;99.90
52879;DHT22;38747;53.140;6.498;2024-02-26T07:12:09;3.60;99.90
52879;DHT22;38747;53.140;6.498;2024-02-26T07:14:35;3.70;99.90
52879;DHT22;38747;53.140;6.498;2024-02-26T07:17:04;3.70;99.90
52879;DHT22;38747;53.140;6.498;2024-02-26T07:19:30;3.70;99.90
52879;DHT22;38747;53.140;6.498;2024-02-26T07:21:56;3.70;99.90
52879;DHT22;38747;53.140;6.498;2024-02-26T07:24:21;3.70;99.90
52879;DHT22;38747;53.140;6.498;2024-02-26T07:26:47;3.70;99.90
52879;DHT22;38747;53.140;6.498;2024-02-26T07:29:13;3.70;99.90
52879;DHT22;38747;53.140;6.498;2024-02-26T07:31:38;3.80;99.90
52879;DHT22;38747;53.140;6.498;2024-02-26T07:34:04;3.80;99.90
52879;DHT22;38747;53.140;6.498;2024-02-26T07:36:29;3.80;99.90
52879;DHT22;38747;53.140;6.498;2024-02-26T07:38:55;3.80;99.90
52879;DHT22;38747;53.140;6.498;2024-02-26T07:41:21;3.80;99.90
52879;DHT22;38747;53.140;6.498;2024-02-26T07:43:46;3.80;99.90
52879;DHT22;38747;53.140;6.498;2024-02-26T07:46:12;3.80;99.90
52879;DHT22;38747;53.140;6.498;2024-02-26T07:48:38;3.80;99.90
52879;DHT22;38747;53.140;6.498;2024-02-26T07:51:04;3.90;99.90
52879;DHT22;38747;53.140;6.498;2024-02-26T07:53:30;3.90;99.90
52879;DHT22;38747;53.140;6.498;2024-02-26T07:55:56;3.90;99.90
52879;DHT22;38747;53.140;6.498;2024-02-26T07:58:23;3.90;99.90
52879;DHT22;38747;53.140;6.498;2024-02-26T08:00:49;3.90;99.90
52879;DHT22;38747;53.140;6.498;2024-02-26T08:03:15;3.90;99.90
52879;DHT22;38747;53.140;6.498;2024-02-26T08:05:41;4.00;99.90
52879;DHT22;38747;53.140;6.498;2024-02-26T08:08:08;4.00;99.90
52879;DHT22;38747;53.140;6.498;2024-02-26T08:10:34;4.00;99.90
52879;DHT22;38747;53.140;6.498;2024-02-26T08:13:00;4.00;99.90
52879;DHT22;38747;53.140;6.498;2024-02-26T08:15:34;4.00;99.90
52879;DHT22;38747;53.140;6.498;2024-02-26T08:18:01;4.00;99.90
52879;DHT22;38747;53.140;6.498;2024-02-26T08:20:29;4.10;99.90
52879;DHT22;38747;53.140;6.498;2024-02-26T08:22:54;4.10;99.90
52879;DHT22;38747;53.140;6.498;2024-02-26T08:25:20;4.10;99.90
52879;DHT22;38747;53.140;6.498;2024-02-26T08:27:46;4.00;99.90
52879;DHT22;38747;53.140;6.498;2024-02-26T08:30:19;4.10;99.90
52879;DHT22;38747;53.140;6.498;2024-02-26T08:32:45;4.10;99.90
52879;DHT22;38747;53.140;6.498;2024-02-26T08:35:11;4.10;99.90
52879;DHT22;38747;53.140;6.498;2024-02-26T08:37:36;4.10;99.90
52879;DHT22;38747;53.140;6.498;2024-02-26T08:40:02;4.10;99.90
52879;DHT22;38747;53.140;6.498;2024-02-26T08:42:29;4.20;99.90
52879;DHT22;38747;53.140;6.498;2024-02-26T08:44:55;4.20;99.90
52879;DHT22;38747;53.140;6.498;2024-02-26T08:47:21;4.20;99.90
52879;DHT22;38747;53.140;6.498;2024-02-26T08:49:46;4.20;99.90
52879;DHT22;38747;53.140;6.498;2024-02-26T08:52:12;4.30;99.90
52879;DHT22;38747;53.140;6.498;2024-02-26T08:54:38;4.30;99.90
52879;DHT22;38747;53.140;6.498;2024-02-26T08:57:04;4.30;99.90
52879;DHT22;38747;53.140;6.498;2024-02-26T08:59:29;4.40;99.90
52879;DHT22;38747;53.140;6.498;2024-02-26T09:01:55;4.30;99.90
52879;DHT22;38747;53.140;6.498;2024-02-26T09:04:20;4.40;99.90
52879;DHT22;38747;53.140;6.498;2024-02-26T09:06:47;4.40;99.90
52879;DHT22;38747;53.140;6.498;2024-02-26T09:09:12;4.40;99.90
52879;DHT22;38747;53.140;6.498;2024-02-26T09:11:45;4.40;99.90
52879;DHT22;38747;53.140;6.498;2024-02-26T09:14:11;4.40;99.90
52879;DHT22;38747;53.140;6.498;2024-02-26T09:16:37;4.50;99.90
52879;DHT22;38747;53.140;6.498;2024-02-26T09:19:03;4.50;99.90
52879;DHT22;38747;53.140;6.498;2024-02-26T09:21:28;4.50;99.90
52879;DHT22;38747;53.140;6.498;2024-02-26T09:23:54;4.50;99.90
52879;DHT22;38747;53.140;6.498;2024-02-26T09:26:20;4.50;99.90
52879;DHT22;38747;53.140;6.498;2024-02-26T09:28:45;4.60;99.90
52879;DHT22;38747;53.140;6.498;2024-02-26T09:31:11;4.60;99.90
52879;DHT22;38747;53.140;6.498;2024-02-26T09:33:37;4.60;99.90
52879;DHT22;38747;53.140;6.498;2024-02-26T09:36:04;4.70;99.90
52879;DHT22;38747;53.140;6.498;2024-02-26T09:38:29;4.70;99.90
52879;DHT22;38747;53.140;6.498;2024-02-26T09:40:57;4.70;99.90
52879;DHT22;38747;53.140;6.498;2024-02-26T09:43:23;4.70;99.90
52879;DHT22;38747;53.140;6.498;2024-02-26T09:45:53;4.70;99.90
52879;DHT22;38747;53.140;6.498;2024-02-26T09:48:20;4.80;99.90
52879;DHT22;38747;53.140;6.498;2024-02-26T09:50:46;4.80;99.90
52879;DHT22;38747;53.140;6.498;2024-02-26T09:53:12;4.80;99.90
52879;DHT22;38747;53.140;6.498;2024-02-26T09:55:40;4.90;99.90
52879;DHT22;38747;53.140;6.498;2024-02-26T09:58:06;5.00;99.90
52879;DHT22;38747;53.140;6.498;2024-02-26T10:00:36;4.90;99.90
52879;DHT22;38747;53.140;6.498;2024-02-26T10:03:04;5.00;99.90
52879;DHT22;38747;53.140;6.498;2024-02-26T10:05:31;5.00;99.90
52879;DHT22;38747;53.140;6.498;2024-02-26T10:07:58;5.00;99.90
52879;DHT22;38747;53.140;6.498;2024-02-26T10:10:25;5.10;99.90
52879;DHT22;38747;53.140;6.498;2024-02-26T10:12:53;5.10;99.90
52879;DHT22;38747;53.140;6.498;2024-02-26T10:15:18;5.10;99.90
52879;DHT22;38747;53.140;6.498;2024-02-26T10:17:44;5.10;99.90
52879;DHT22;38747;53.140;6.498;2024-02-26T10:20:14;5.00;99.90
52879;DHT22;38747;53.140;6.498;2024-02-26T10:22:41;5.10;99.90
52879;DHT22;38747;53.140;6.498;2024-02-26T10:25:07;5.10;99.90
52879;DHT22;38747;53.140;6.498;2024-02-26T10:27:34;5.10;99.90
52879;DHT22;38747;53.140;6.498;2024-02-26T10:30:03;5.10;99.90
52879;DHT22;38747;53.140;6.498;2024-02-26T10:32:30;5.20;99.90
52879;DHT22;38747;53.140;6.498;2024-02-26T10:34:57;5.20;99.90
52879;DHT22;38747;53.140;6.498;2024-02-26T10:37:23;5.20;99.90
52879;DHT22;38747;53.140;6.498;2024-02-26T10:39:48;5.20;99.90
52879;DHT22;38747;53.140;6.498;2024-02-26T10:42:14;5.20;99.90
52879;DHT22;38747;53.140;6.498;2024-02-26T10:44:41;5.30;99.90
52879;DHT22;38747;53.140;6.498;2024-02-26T10:47:08;5.30;99.90
52879;DHT22;38747;53.140;6.498;2024-02-26T10:49:35;5.30;99.90
52879;DHT22;38747;53.140;6.498;2024-02-26T10:52:01;5.30;99.90
52879;DHT22;38747;53.140;6.498;2024-02-26T10:54:29;5.30;99.90
52879;DHT22;38747;53.140;6.498;2024-02-26T10:56:57;5.30;99.60
52879;DHT22;38747;53.140;6.498;2024-02-26T10:59:24;5.30;99.90
52879;DHT22;38747;53.140;6.498;2024-02-26T11:01:50;5.40;99.90
52879;DHT22;38747;53.140;6.498;2024-02-26T11:04:17;5.50;99.90
52879;DHT22;38747;53.140;6.498;2024-02-26T11:06:44;5.40;97.50
52879;DHT22;38747;53.140;6.498;2024-02-26T11:09:12;5.50;97.80
52879;DHT22;38747;53.140;6.498;2024-02-26T11:11:38;5.50;99.90
52879;DHT22;38747;53.140;6.498;2024-02-26T11:14:06;5.50;98.50
52879;DHT22;38747;53.140;6.498;2024-02-26T11:16:34;5.60;99.90
52879;DHT22;38747;53.140;6.498;2024-02-26T11:19:02;5.60;99.90
52879;DHT22;38747;53.140;6.498;2024-02-26T11:21:28;5.60;99.90
52879;DHT22;38747;53.140;6.498;2024-02-26T11:24:09;5.70;99.90
52879;DHT22;38747;53.140;6.498;2024-02-26T11:26:42;5.70;99.90
52879;DHT22;38747;53.140;6.498;2024-02-26T11:29:12;5.70;99.90
52879;DHT22;38747;53.140;6.498;2024-02-26T11:31:39;5.80;94.60
52879;DHT22;38747;53.140;6.498;2024-02-26T11:34:07;5.80;98.30
52879;DHT22;38747;53.140;6.498;2024-02-26T11:36:34;5.90;96.10
52879;DHT22;38747;53.140;6.498;2024-02-26T11:39:00;6.00;99.90
52879;DHT22;38747;53.140;6.498;2024-02-26T11:41:25;6.10;98.60
52879;DHT22;38747;53.140;6.498;2024-02-26T11:43:58;6.20;99.20
52879;DHT22;38747;53.140;6.498;2024-02-26T11:46:52;6.20;95.20
52879;DHT22;38747;53.140;6.498;2024-02-26T11:51:52;6.20;91.90
52879;DHT22;38747;53.140;6.498;2024-02-26T11:57:29;6.30;96.90
52879;DHT22;38747;53.140;6.498;2024-02-26T12:00:14;6.40;99.60
52879;DHT22;38747;53.140;6.498;2024-02-26T12:05:19;6.30;99.90
52879;DHT22;38747;53.140;6.498;2024-02-26T12:07:47;6.30;99.90
52879;DHT22;38747;53.140;6.498;2024-02-26T12:10:15;6.30;99.90
52879;DHT22;38747;53.140;6.498;2024-02-26T12:12:42;6.20;99.00
52879;DHT22;38747;53.140;6.498;2024-02-26T12:15:09;6.20;95.70
52879;DHT22;38747;53.140;6.498;2024-02-26T12:17:38;6.20;99.90
52879;DHT22;38747;53.140;6.498;2024-02-26T12:20:11;6.10;99.90
52879;DHT22;38747;53.140;6.498;2024-02-26T12:22:45;6.00;95.70
52879;DHT22;38747;53.140;6.498;2024-02-26T12:25:10;6.10;99.10
52879;DHT22;38747;53.140;6.498;2024-02-26T12:27:36;6.00;99.20
52879;DHT22;38747;53.140;6.498;2024-02-26T12:30:03;5.90;97.90
52879;DHT22;38747;53.140;6.498;2024-02-26T12:32:32;5.90;99.20
52879;DHT22;38747;53.140;6.498;2024-02-26T12:34:58;5.90;99.90
52879;DHT22;38747;53.140;6.498;2024-02-26T12:37:27;5.90;99.90
52879;DHT22;38747;53.140;6.498;2024-02-26T12:39:53;6.00;99.90
52879;DHT22;38747;53.140;6.498;2024-02-26T12:42:18;5.90;99.90
52879;DHT22;38747;53.140;6.498;2024-02-26T12:44:47;5.90;99.90
52879;DHT22;38747;53.140;6.498;2024-02-26T12:47:13;5.90;99.90
52879;DHT22;38747;53.140;6.498;2024-02-26T12:49:48;5.80;99.90
52879;DHT22;38747;53.140;6.498;2024-02-26T12:52:14;5.80;99.90
52879;DHT22;38747;53.140;6.498;2024-02-26T12:54:41;5.70;99.90
52879;DHT22;38747;53.140;6.498;2024-02-26T12:57:08;5.70;99.90
52879;DHT22;38747;53.140;6.498;2024-02-26T12:59:38;5.70;99.90
52879;DHT22;38747;53.140;6.498;2024-02-26T13:02:04;5.70;99.90
52879;DHT22;38747;53.140;6.498;2024-02-26T13:04:31;5.60;99.90
52879;DHT22;38747;53.140;6.498;2024-02-26T13:06:57;5.60;99.90
52879;DHT22;38747;53.140;6.498;2024-02-26T13:09:31;5.70;99.90
52879;DHT22;38747;53.140;6.498;2024-02-26T13:11:57;5.60;99.90
52879;DHT22;38747;53.140;6.498;2024-02-26T13:14:24;5.60;99.90
52879;DHT22;38747;53.140;6.498;2024-02-26T13:16:56;5.60;99.90
52879;DHT22;38747;53.140;6.498;2024-02-26T13:19:22;5.60;99.90
52879;DHT22;38747;53.140;6.498;2024-02-26T13:21:48;5.60;99.90
52879;DHT22;38747;53.140;6.498;2024-02-26T13:24:14;5.60;99.90
52879;DHT22;38747;53.140;6.498;2024-02-26T13:26:39;5.50;99.90
52879;DHT22;38747;53.140;6.498;2024-02-26T13:29:05;5.50;99.90
52879;DHT22;38747;53.140;6.498;2024-02-26T13:31:32;5.50;99.90
52879;DHT22;38747;53.140;6.498;2024-02-26T13:34:03;5.40;99.90
52879;DHT22;38747;53.140;6.498;2024-02-26T13:36:29;5.40;99.90
52879;DHT22;38747;53.140;6.498;2024-02-26T13:38:55;5.40;99.90
52879;DHT22;38747;53.140;6.498;2024-02-26T13:41:24;5.50;99.90
52879;DHT22;38747;53.140;6.498;2024-02-26T13:43:50;5.40;99.90
52879;DHT22;38747;53.140;6.498;2024-02-26T13:46:16;5.50;99.90
52879;DHT22;38747;53.140;6.498;2024-02-26T13:48:42;5.40;99.90
52879;DHT22;38747;53.140;6.498;2024-02-26T13:51:09;5.40;99.90
52879;DHT22;38747;53.140;6.498;2024-02-26T13:53:34;5.50;99.90
52879;DHT22;38747;53.140;6.498;2024-02-26T13:56:00;5.50;99.90
52879;DHT22;38747;53.140;6.498;2024-02-26T13:58:27;5.40;99.90
52879;DHT22;38747;53.140;6.498;2024-02-26T14:00:55;5.40;99.90
52879;DHT22;38747;53.140;6.498;2024-02-26T14:03:22;5.40;99.90
52879;DHT22;38747;53.140;6.498;2024-02-26T14:05:47;5.40;99.90
52879;DHT22;38747;53.140;6.498;2024-02-26T14:08:13;5.40;99.90
52879;DHT22;38747;53.140;6.498;2024-02-26T14:10:39;5.40;99.90
52879;DHT22;38747;53.140;6.498;2024-02-26T14:13:04;5.40;99.90
52879;DHT22;38747;53.140;6.498;2024-02-26T14:15:30;5.40;99.90
52879;DHT22;38747;53.140;6.498;2024-02-26T14:17:56;5.30;99.90
52879;DHT22;38747;53.140;6.498;2024-02-26T14:20:23;5.30;99.90
52879;DHT22;38747;53.140;6.498;2024-02-26T14:22:50;5.30;99.90
52879;DHT22;38747;53.140;6.498;2024-02-26T14:25:17;5.30;99.90
52879;DHT22;38747;53.140;6.498;2024-02-26T14:27:43;5.30;99.90
52879;DHT22;38747;53.140;6.498;2024-02-26T14:30:09;5.30;99.90
52879;DHT22;38747;53.140;6.498;2024-02-26T14:32:35;5.30;99.90
52879;DHT22;38747;53.140;6.498;2024-02-26T14:35:06;5.30;99.90
52879;DHT22;38747;53.140;6.498;2024-02-26T14:37:32;5.40;99.90
52879;DHT22;38747;53.140;6.498;2024-02-26T14:39:58;5.40;99.90
52879;DHT22;38747;53.140;6.498;2024-02-26T14:42:24;5.40;99.90
52879;DHT22;38747;53.140;6.498;2024-02-26T14:44:50;5.30;99.90
52879;DHT22;38747;53.140;6.498;2024-02-26T14:47:16;5.30;99.90
52879;DHT22;38747;53.140;6.498;2024-02-26T14:49:42;5.30;99.90
52879;DHT22;38747;53.140;6.498;2024-02-26T14:52:08;5.30;99.90
52879;DHT22;38747;53.140;6.498;2024-02-26T14:54:34;5.30;99.90
52879;DHT22;38747;53.140;6.498;2024-02-26T14:57:04;5.30;99.90
52879;DHT22;38747;53.140;6.498;2024-02-26T14:59:30;5.30;99.90
52879;DHT22;38747;53.140;6.498;2024-02-26T15:01:57;5.30;99.90
52879;DHT22;38747;53.140;6.498;2024-02-26T15:04:25;5.30;99.90
52879;DHT22;38747;53.140;6.498;2024-02-26T15:06:51;5.20;99.90
52879;DHT22;38747;53.140;6.498;2024-02-26T15:09:17;5.20;99.90
52879;DHT22;38747;53.140;6.498;2024-02-26T15:11:43;5.20;99.90
52879;DHT22;38747;53.140;6.498;2024-02-26T15:14:10;5.20;99.90
52879;DHT22;38747;53.140;6.498;2024-02-26T15:16:36;5.20;99.90
52879;DHT22;38747;53.140;6.498;2024-02-26T15:19:02;5.20;99.90
52879;DHT22;38747;53.140;6.498;2024-02-26T15:21:28;5.10;99.90
52879;DHT22;38747;53.140;6.498;2024-02-26T15:23:54;5.20;99.90
52879;DHT22;38747;53.140;6.498;2024-02-26T15:26:20;5.20;99.90
52879;DHT22;38747;53.140;6.498;2024-02-26T15:28:47;5.20;99.90
52879;DHT22;38747;53.140;6.498;2024-02-26T15:31:15;5.20;99.90
52879;DHT22;38747;53.140;6.498;2024-02-26T15:33:41;5.10;99.90
52879;DHT22;38747;53.140;6.498;2024-02-26T15:36:08;5.10;99.90
52879;DHT22;38747;53.140;6.498;2024-02-26T15:38:38;5.10;99.90
52879;DHT22;38747;53.140;6.498;2024-02-26T15:41:13;5.10;99.90
52879;DHT22;38747;53.140;6.498;2024-02-26T15:43:39;5.10;99.90
52879;DHT22;38747;53.140;6.498;2024-02-26T15:46:04;5.10;99.90
52879;DHT22;38747;53.140;6.498;2024-02-26T15:48:31;5.10;99.90
52879;DHT22;38747;53.140;6.498;2024-02-26T15:50:57;5.10;99.90